This is the latest recevied weather packets stored in our database for station/object G6FJI-13. If no packets are shown the sender has not sent any weather packets the latest 10 day(s).
| Time | Temp. | Humidity | Pressure | Rain* | Wind** | Luminosity | Snow |
|---|---|---|---|---|---|---|---|
| 1777587013 | 11.11° C | 60% | 1023.7 hPa | 0 mm | - | 0 W/m² | - |
| 1777583417 | 12.78° C | 56% | 1023.7 hPa | 0 mm | - | 0 W/m² | - |
| 1777581574 | 13.33° C | 52% | 1023.5 hPa | 0 mm | - | 0 W/m² | - |
| 1777577420 | 15.56° C | 44% | 1023.3 hPa | 0 mm | - | 1 W/m² | - |
| 1777572624 | 18.89° C | 39% | 1022.9 hPa | 0 mm | - | 17 W/m² | - |
| 1777569003 | 20° C | 36% | 1022.7 hPa | 0 mm | - | 27 W/m² | - |
| 1777566540 | 20.56° C | 35% | 1022.7 hPa | 0 mm | - | 32 W/m² | - |
| 1777565984 | 21.11° C | 36% | 1022.6 hPa | 0 mm | - | 32 W/m² | - |
| 1777563539 | 21.67° C | 35% | 1022.6 hPa | 0 mm | - | 37 W/m² | - |
| 1777561126 | 22.22° C | 33% | 1022.8 hPa | 0 mm | - | 41 W/m² | - |
| 1777554571 | 22.22° C | 30% | 1023.8 hPa | 0 mm | - | 664 W/m² | - |
| 1777547348 | 20° C | 34% | 1024.6 hPa | 0 mm | - | 600 W/m² | - |
| 1777543119 | 19.44° C | 44% | 1024.7 hPa | 0 mm | - | 486 W/m² | - |
| 1777541920 | 18.33° C | 46% | 1024.7 hPa | 0 mm | - | 121 W/m² | - |
| 1777540153 | 16.67° C | 51% | 1025 hPa | 0 mm | - | 77 W/m² | - |
| 1777534157 | 13.89° C | 59% | 1025.3 hPa | 0 mm | - | 27 W/m² | - |
| 1777532326 | 12.22° C | 65% | 1025.6 hPa | 0 mm | - | 23 W/m² | - |
| 1777529831 | 10° C | 74% | 1025.5 hPa | 0 mm | - | 18 W/m² | - |
| 1777527262 | 6.67° C | 85% | 1025.6 hPa | 0 mm | - | 12 W/m² | - |
| 1777521266 | 7.78° C | 80% | 1025.5 hPa | 0 mm | - | 0 W/m² | - |
| 1777517608 | 7.78° C | 78% | 1025.8 hPa | 0 mm | - | 0 W/m² | - |
| 1777514655 | 8.33° C | 76% | 1025.8 hPa | 0 mm | - | 0 W/m² | - |
| 1777511057 | 8.33° C | 76% | 1026.2 hPa | 0 mm | - | 0 W/m² | - |
| 1777509215 | 8.89° C | 75% | 1026.2 hPa | 0 mm | - | 0 W/m² | - |
| 1777508015 | 8.89° C | 74% | 1026.6 hPa | 0 mm | - | 0 W/m² | - |
* Rain latest hour (hover to see other rain measurements)
** Current wind speed in m/s (hover to see current wind gust speed)